Time;durP1;ratioP1;P1;durP2;ratioP2;P2;SDS_P1;SDS_P2;PMS_P1;PMS_P2;Temp;Humidity;BMP_temperature;BMP_pressure;BME280_temperature;BME280_humidity;BME280_pressure;Samples;Min_cycle;Max_cycle;Signal;HPM_P1;HPM_P2
2020/12/17 00:03:59;;;;;;;4.43;1.00;;;10.10;99.90;;;;;;20905940;28;20593;-67
2020/12/17 00:14:15;;;;;;;4.50;0.60;;;10.20;99.90;;;;;;20904364;28;20220;-68
2020/12/17 00:24:18;;;;;;;1.80;0.87;;;10.20;99.90;;;;;;20904567;28;20537;-67
2020/12/17 00:34:21;;;;;;;0.67;0.67;;;10.50;99.90;;;;;;20929822;28;20247;-67
2020/12/17 00:44:24;;;;;;;0.20;0.00;;;10.50;99.90;;;;;;20984833;28;20287;-67
2020/12/17 00:54:27;;;;;;;1.13;0.77;;;10.40;99.90;;;;;;20983992;28;20251;-67
2020/12/17 01:04:30;;;;;;;0.20;0.20;;;10.60;99.90;;;;;;20953842;22;20261;-74
2020/12/17 01:14:40;;;;;;;0.20;0.03;;;10.30;99.90;;;;;;20900269;28;20200;-73
2020/12/17 01:24:43;;;;;;;0.30;0.20;;;10.10;99.90;;;;;;20900311;28;20232;-73
2020/12/17 01:34:46;;;;;;;0.23;0.13;;;9.80;99.90;;;;;;20930416;28;20283;-73
2020/12/17 01:44:56;;;;;;;2.93;0.97;;;9.70;99.90;;;;;;20963892;28;20192;-73
2020/12/17 01:55:00;;;;;;;0.20;0.10;;;9.90;99.90;;;;;;20982058;28;20297;-74
2020/12/17 02:05:06;;;;;;;0.20;0.10;;;9.80;99.90;;;;;;20963441;28;20256;-74
2020/12/17 02:15:17;;;;;;;2.80;0.63;;;9.90;99.90;;;;;;20980974;28;20537;-74
2020/12/17 02:25:20;;;;;;;0.33;0.33;;;9.50;99.90;;;;;;20978840;28;20304;-72
2020/12/17 02:35:23;;;;;;;0.60;0.40;;;9.40;99.90;;;;;;20950161;28;20197;-73
2020/12/17 02:45:32;;;;;;;0.63;0.40;;;9.70;99.90;;;;;;20911666;28;20213;-74
2020/12/17 02:55:35;;;;;;;0.50;0.50;;;9.50;99.90;;;;;;20910647;28;20288;-74
2020/12/17 03:05:38;;;;;;;0.40;0.33;;;10.00;99.90;;;;;;20911360;28;20245;-74
2020/12/17 03:15:51;;;;;;;0.20;0.20;;;10.20;99.90;;;;;;20908208;28;20205;-73
2020/12/17 03:25:56;;;;;;;0.40;0.27;;;10.30;99.90;;;;;;20909468;28;20752;-73
2020/12/17 03:35:58;;;;;;;0.20;0.10;;;10.50;99.90;;;;;;20949728;28;20580;-72
2020/12/17 03:46:16;;;;;;;0.20;0.10;;;10.60;99.90;;;;;;20990050;28;20237;-71
2020/12/17 03:56:19;;;;;;;0.90;0.90;;;11.10;99.90;;;;;;20988998;28;20669;-74
2020/12/17 04:06:22;;;;;;;1.53;0.80;;;11.30;99.90;;;;;;20940093;22;20279;-67
2020/12/17 04:16:33;;;;;;;0.30;0.20;;;11.20;99.90;;;;;;20885412;28;20199;-68
2020/12/17 04:26:36;;;;;;;0.20;0.10;;;11.30;99.90;;;;;;20903070;28;20217;-68
2020/12/17 04:36:39;;;;;;;0.20;0.10;;;11.20;99.90;;;;;;20883985;28;20220;-69
2020/12/17 04:46:57;;;;;;;0.40;0.40;;;11.30;99.90;;;;;;20917872;28;20216;-67
2020/12/17 04:57:07;;;;;;;0.20;0.10;;;11.40;99.90;;;;;;20900831;28;20221;-68
2020/12/17 05:07:12;;;;;;;0.20;0.20;;;11.50;99.90;;;;;;20996424;22;20344;-75
2020/12/17 05:17:15;;;;;;;0.20;0.00;;;11.80;99.90;;;;;;20900039;28;20523;-75
2020/12/17 05:27:18;;;;;;;0.27;0.20;;;11.70;99.90;;;;;;20899737;28;20644;-74
2020/12/17 05:37:22;;;;;;;0.30;0.30;;;11.90;99.90;;;;;;20899362;28;20217;-74
2020/12/17 05:47:31;;;;;;;0.30;0.30;;;12.00;99.90;;;;;;20895146;28;20221;-74
2020/12/17 05:57:34;;;;;;;1.60;1.50;;;12.00;99.90;;;;;;20899482;28;20669;-75
2020/12/17 06:07:48;;;;;;;0.57;0.57;;;11.50;99.90;;;;;;20917030;28;20253;-75
2020/12/17 06:17:57;;;;;;;0.20;0.10;;;11.40;99.90;;;;;;20928679;28;20723;-73
2020/12/17 06:28:02;;;;;;;1.80;1.70;;;11.70;99.90;;;;;;20913338;28;20702;-74
2020/12/17 06:38:10;;;;;;;4.93;1.03;;;12.00;99.90;;;;;;20912577;28;20197;-74
2020/12/17 06:48:33;;;;;;;0.83;0.70;;;12.10;99.90;;;;;;20910699;28;20620;-73
2020/12/17 06:58:36;;;;;;;0.50;0.50;;;12.10;99.90;;;;;;20907299;28;20225;-75
2020/12/17 07:08:39;;;;;;;2.10;1.00;;;12.30;99.90;;;;;;20904676;28;20316;-75
2020/12/17 07:18:42;;;;;;;0.30;0.20;;;12.40;99.90;;;;;;20919538;28;20292;-74
2020/12/17 07:28:53;;;;;;;3.30;1.17;;;12.50;99.90;;;;;;20906036;28;20229;-75
2020/12/17 07:39:07;;;;;;;6.00;2.00;;;12.50;99.90;;;;;;20916207;28;20276;-76
2020/12/17 07:49:30;;;;;;;0.60;0.60;;;12.50;99.90;;;;;;20905375;28;20225;-74
2020/12/17 07:59:33;;;;;;;0.50;0.50;;;12.60;99.90;;;;;;20906557;28;20190;-73
2020/12/17 08:09:36;;;;;;;7.53;2.10;;;12.70;99.90;;;;;;20905223;28;20308;-76
2020/12/17 08:19:39;;;;;;;1.30;1.20;;;12.80;99.90;;;;;;20903477;28;20243;-74
2020/12/17 08:29:46;;;;;;;1.00;0.80;;;13.00;99.90;;;;;;20934723;28;20619;-75
2020/12/17 08:39:58;;;;;;;2.83;1.30;;;13.30;99.90;;;;;;20895353;28;20231;-75
2020/12/17 08:50:03;;;;;;;25.57;1.97;;;13.60;99.90;;;;;;21035522;28;20250;-75
2020/12/17 09:00:12;;;;;;;2.33;0.83;;;13.90;99.90;;;;;;21005263;28;20232;-75
2020/12/17 09:10:17;;;;;;;4.60;1.57;;;14.60;99.90;;;;;;20966080;28;20588;-76
2020/12/17 09:20:20;;;;;;;5.33;1.40;;;15.00;99.90;;;;;;20941606;28;20219;-75
2020/12/17 09:30:32;;;;;;;1.03;0.80;;;15.00;99.90;;;;;;20899374;28;20235;-75
2020/12/17 09:40:37;;;;;;;0.57;0.47;;;14.60;99.90;;;;;;20898630;28;20197;-74
2020/12/17 09:50:51;;;;;;;3.50;2.20;;;14.60;99.90;;;;;;20916017;28;20576;-74
2020/12/17 10:00:53;;;;;;;0.70;0.57;;;15.30;99.90;;;;;;20915252;28;20312;-73
2020/12/17 10:10:57;;;;;;;0.30;0.27;;;15.80;99.90;;;;;;20914948;28;20731;-73
2020/12/17 10:21:00;;;;;;;1.13;1.03;;;16.40;99.90;;;;;;20959465;28;20224;-74
2020/12/17 10:31:05;;;;;;;0.33;0.33;;;17.00;99.90;;;;;;20977302;28;20316;-75
2020/12/17 10:41:11;;;;;;;1.63;1.53;;;17.10;99.90;;;;;;20993700;28;20197;-75
2020/12/17 10:51:15;;;;;;;1.00;1.00;;;17.30;99.90;;;;;;20992613;28;20217;-75
2020/12/17 11:01:20;;;;;;;0.77;0.70;;;17.10;99.90;;;;;;20991844;28;20550;-74
2020/12/17 11:11:24;;;;;;;3.33;0.93;;;17.40;99.90;;;;;;20992496;28;20228;-74
2020/12/17 11:21:27;;;;;;;1.43;1.00;;;17.60;99.90;;;;;;20939019;28;20273;-74
2020/12/17 11:31:30;;;;;;;1.17;0.73;;;17.40;99.90;;;;;;20907667;28;20225;-74
2020/12/17 11:41:34;;;;;;;7.73;1.30;;;17.10;99.90;;;;;;20906915;28;20190;-75
2020/12/17 11:51:37;;;;;;;0.87;0.87;;;17.30;99.90;;;;;;20906375;28;20231;-73
2020/12/17 12:01:42;;;;;;;1.13;0.43;;;17.30;99.90;;;;;;20904624;28;20243;-73
2020/12/17 12:11:46;;;;;;;0.87;0.60;;;17.50;99.90;;;;;;20902820;28;20217;-75
2020/12/17 12:21:49;;;;;;;0.87;0.83;;;17.40;99.90;;;;;;20939084;28;20283;-74
2020/12/17 12:31:53;;;;;;;4.83;1.10;;;17.20;99.90;;;;;;20985805;28;20248;-75
2020/12/17 12:41:56;;;;;;;1.03;0.90;;;17.30;99.90;;;;;;20985489;28;20199;-73
2020/12/17 12:51:59;;;;;;;1.03;0.87;;;17.10;99.90;;;;;;20984447;28;20303;-73
2020/12/17 13:02:02;;;;;;;1.47;0.73;;;17.60;99.90;;;;;;20966167;28;20255;-75
2020/12/17 13:12:05;;;;;;;0.20;0.10;;;17.70;99.90;;;;;;20983883;28;20315;-74
2020/12/17 13:22:08;;;;;;;20.90;1.57;;;17.90;99.90;;;;;;20925435;28;20259;-75
2020/12/17 13:32:11;;;;;;;1.00;0.83;;;18.10;99.90;;;;;;20896693;28;20232;-75
2020/12/17 13:42:14;;;;;;;0.83;0.47;;;18.20;99.90;;;;;;20897301;28;20201;-74
2020/12/17 13:52:20;;;;;;;1.47;0.70;;;18.00;99.90;;;;;;20898983;28;20225;-74
2020/12/17 14:02:23;;;;;;;2.63;1.40;;;17.90;99.90;;;;;;20899259;28;20228;-77
2020/12/17 14:12:27;;;;;;;6.57;1.23;;;17.50;99.90;;;;;;20895821;28;20304;-73
2020/12/17 14:22:36;;;;;;;1.20;1.03;;;17.30;99.90;;;;;;20896088;28;20224;-74
2020/12/17 14:32:39;;;;;;;0.50;0.40;;;17.90;99.90;;;;;;20906972;28;20316;-74
2020/12/17 14:42:42;;;;;;;1.40;0.80;;;17.60;99.90;;;;;;20909930;28;20220;-75
2020/12/17 14:52:57;;;;;;;1.07;0.97;;;17.40;99.90;;;;;;20910774;28;20286;-74
2020/12/17 15:03:01;;;;;;;0.63;0.40;;;17.10;99.90;;;;;;20909647;28;20230;-73
2020/12/17 15:13:05;;;;;;;0.50;0.47;;;17.00;99.90;;;;;;20896187;28;20218;-74
2020/12/17 15:23:12;;;;;;;0.83;0.30;;;17.60;99.90;;;;;;20970087;28;20197;-73
2020/12/17 15:33:16;;;;;;;1.60;0.63;;;17.00;99.90;;;;;;20955658;28;20229;-74
2020/12/17 15:43:19;;;;;;;3.00;1.33;;;16.80;99.90;;;;;;20899305;28;20288;-70
2020/12/17 15:53:36;;;;;;;2.33;2.13;;;16.40;99.90;;;;;;20890235;28;20227;-73
2020/12/17 16:03:39;;;;;;;1.10;1.00;;;16.20;99.90;;;;;;20899584;28;20728;-72
2020/12/17 16:13:44;;;;;;;1.73;1.63;;;15.90;99.90;;;;;;20898734;28;20732;-76
2020/12/17 16:23:54;;;;;;;1.27;1.17;;;15.80;99.90;;;;;;20980354;28;20210;-76
2020/12/17 16:33:57;;;;;;;2.83;0.43;;;15.40;99.90;;;;;;20983248;28;20228;-76
2020/12/17 16:44:00;;;;;;;18.37;1.60;;;15.50;99.90;;;;;;20980632;28;20656;-76
2020/12/17 16:54:09;;;;;;;2.53;2.30;;;15.40;99.90;;;;;;20981415;28;20229;-74
2020/12/17 17:04:11;;;;;;;5.03;1.60;;;15.40;99.90;;;;;;20980551;28;20253;-77
2020/12/17 17:14:15;;;;;;;2.90;2.00;;;15.60;99.90;;;;;;20981111;28;20248;-75
2020/12/17 17:24:26;;;;;;;4.27;1.13;;;15.70;99.90;;;;;;20905155;28;20200;-76
2020/12/17 17:34:30;;;;;;;1.30;1.20;;;15.90;99.90;;;;;;20895752;28;20275;-75
2020/12/17 17:44:32;;;;;;;7.73;3.13;;;16.00;99.90;;;;;;20893933;28;20198;-76
2020/12/17 17:54:43;;;;;;;4.67;1.67;;;16.00;99.90;;;;;;20898178;28;20304;-76
2020/12/17 18:04:45;;;;;;;3.73;1.47;;;16.00;99.90;;;;;;20943890;28;20213;-75
2020/12/17 18:14:49;;;;;;;1.57;1.13;;;16.00;99.90;;;;;;20928606;28;20677;-74
2020/12/17 18:24:57;;;;;;;2.87;2.00;;;15.50;99.90;;;;;;20991687;28;20197;-77
2020/12/17 18:35:02;;;;;;;5.13;1.53;;;15.20;99.90;;;;;;20995595;28;20319;-77
2020/12/17 18:45:05;;;;;;;2.87;1.70;;;15.10;99.90;;;;;;20989047;28;20190;-75
2020/12/17 18:55:15;;;;;;;3.73;1.63;;;15.10;99.90;;;;;;20988793;28;20572;-74
2020/12/17 19:39:45;;;;;;;1.10;1.00;;;15.20;99.90;;;;;;20979513;22;20234;-73
2020/12/17 19:49:47;;;;;;;1.60;0.87;;;15.30;99.90;;;;;;20802780;28;20230;-72
2020/12/17 19:59:51;;;;;;;19.83;1.13;;;15.30;99.90;;;;;;20811988;28;20557;-71
2020/12/17 20:09:53;;;;;;;0.50;0.40;;;15.20;99.90;;;;;;20817348;28;20581;-74
2020/12/17 20:19:57;;;;;;;5.37;3.77;;;15.30;99.90;;;;;;20816128;28;20209;-72
2020/12/17 20:29:59;;;;;;;0.63;0.60;;;15.20;99.90;;;;;;20813523;28;20222;-71
2020/12/17 20:40:03;;;;;;;0.87;0.57;;;15.20;99.90;;;;;;20860428;28;20222;-74
2020/12/17 20:50:06;;;;;;;0.73;0.73;;;15.10;99.90;;;;;;20813976;28;20230;-73
2020/12/17 21:00:11;;;;;;;0.50;0.50;;;15.10;99.90;;;;;;20739897;28;20285;-74
2020/12/17 21:10:14;;;;;;;4.23;1.90;;;15.10;99.90;;;;;;20736069;28;20230;-75
2020/12/17 21:20:18;;;;;;;1.37;1.27;;;15.00;99.90;;;;;;20737209;28;20218;-74
2020/12/17 21:30:22;;;;;;;0.30;0.20;;;15.10;99.90;;;;;;20812406;28;20217;-75
2020/12/17 21:40:26;;;;;;;0.80;0.63;;;15.00;99.90;;;;;;20817229;28;20226;-75
2020/12/17 21:50:28;;;;;;;1.00;0.97;;;15.00;99.90;;;;;;20817393;28;20310;-74
2020/12/17 22:00:32;;;;;;;0.57;0.57;;;15.10;99.90;;;;;;20817016;28;20210;-73
2020/12/17 22:10:34;;;;;;;0.70;0.47;;;14.90;99.90;;;;;;20816183;28;20226;-73
2020/12/17 22:20:38;;;;;;;24.97;0.70;;;14.80;99.90;;;;;;20813907;28;20272;-72
2020/12/17 22:30:40;;;;;;;1.00;0.33;;;14.80;99.90;;;;;;20830620;28;20312;-72
2020/12/17 22:40:44;;;;;;;0.53;0.53;;;14.80;99.90;;;;;;20815696;28;20233;-72
2020/12/17 22:50:47;;;;;;;0.40;0.30;;;14.80;99.90;;;;;;20820213;28;20232;-72
2020/12/17 23:00:50;;;;;;;17.57;0.73;;;14.70;99.90;;;;;;20828156;28;20198;-72
2020/12/17 23:10:53;;;;;;;0.50;0.50;;;14.70;99.90;;;;;;20827235;28;20221;-71
2020/12/17 23:20:56;;;;;;;0.63;0.60;;;14.70;99.90;;;;;;20826646;28;20293;-72
2020/12/17 23:30:59;;;;;;;0.70;0.30;;;14.70;99.90;;;;;;20766461;28;20280;-71
2020/12/17 23:41:03;;;;;;;1.87;0.77;;;14.80;99.90;;;;;;20741583;28;20209;-71
2020/12/17 23:51:08;;;;;;;1.33;0.57;;;14.70;99.90;;;;;;20743760;28;20784;-71
